createdAt,value
2017-09-19T16:33:19.216Z,10.30
2017-09-19T16:35:47.582Z,10.63
2017-09-19T16:38:15.922Z,9.23
2017-09-19T16:40:43.563Z,10.30
2017-09-19T16:43:11.140Z,9.90
2017-09-19T16:45:38.714Z,10.00
2017-09-19T16:48:06.379Z,9.50
2017-09-19T16:50:33.959Z,9.80
2017-09-19T16:53:01.556Z,9.33
2017-09-19T16:55:29.184Z,8.93
2017-09-19T16:57:57.162Z,9.50
2017-09-19T17:00:24.988Z,9.13
2017-09-19T17:02:52.624Z,9.43
2017-09-19T17:05:20.996Z,9.40
2017-09-19T17:07:48.567Z,8.30
2017-09-19T17:10:16.963Z,8.90
2017-09-19T17:12:45.343Z,8.57
2017-09-19T17:15:12.923Z,7.93
2017-09-19T17:17:42.219Z,9.00
2017-09-19T17:20:09.800Z,8.33
2017-09-19T17:22:37.419Z,9.20
2017-09-19T17:25:06.032Z,8.77
2017-09-19T17:27:33.934Z,8.20
2017-09-19T17:30:02.611Z,8.50
2017-09-19T17:32:30.943Z,8.17
2017-09-19T17:34:58.570Z,8.60
2017-09-19T17:37:27.162Z,7.90
2017-09-19T17:39:55.253Z,7.80
2017-09-19T17:42:22.855Z,8.30
2017-09-19T17:44:50.464Z,7.73
2017-09-19T17:47:25.952Z,9.07
2017-09-19T17:49:54.665Z,8.20
2017-09-19T17:52:22.305Z,8.13
2017-09-19T17:54:49.928Z,8.17
2017-09-19T17:57:17.932Z,8.40
2017-09-19T17:59:46.542Z,8.63
2017-09-19T18:02:15.063Z,7.27
2017-09-19T18:04:42.662Z,8.10
2017-09-19T18:07:10.267Z,7.20
2017-09-19T18:09:37.935Z,7.10
2017-09-19T18:12:06.088Z,8.17
2017-09-19T18:14:35.211Z,7.60
2017-09-19T18:17:02.909Z,8.10
2017-09-19T18:19:31.283Z,7.50
2017-09-19T18:21:59.292Z,7.80
2017-09-19T18:24:27.020Z,7.97
2017-09-19T18:26:55.771Z,7.77
2017-09-19T18:29:23.375Z,6.70
2017-09-19T18:31:51.605Z,6.87
2017-09-19T18:34:19.209Z,7.30
2017-09-19T18:36:46.859Z,8.27
2017-09-19T18:39:14.483Z,7.50
2017-09-19T18:41:42.485Z,7.40
2017-09-19T18:44:10.087Z,7.27
2017-09-19T18:46:38.578Z,6.83
2017-09-19T18:49:07.183Z,7.70
2017-09-19T18:51:35.367Z,6.33
2017-09-19T18:54:04.388Z,7.70
2017-09-19T18:56:32.047Z,6.00
2017-09-19T18:59:02.243Z,6.80
2017-09-19T19:01:30.917Z,6.40
2017-09-19T19:03:58.539Z,6.80
2017-09-19T19:06:28.362Z,6.43
2017-09-19T19:08:57.868Z,6.23
2017-09-19T19:11:27.680Z,6.40
2017-09-19T19:13:55.311Z,6.07
2017-09-19T19:16:23.436Z,6.50
2017-09-19T19:18:51.307Z,7.17
2017-09-19T19:21:19.482Z,6.17
2017-09-19T19:23:47.590Z,6.43
2017-09-19T19:26:16.886Z,6.37
2017-09-19T19:28:45.349Z,5.90
2017-09-19T19:31:14.198Z,6.00
2017-09-19T19:33:43.234Z,6.30
2017-09-19T19:36:12.184Z,5.83
2017-09-19T19:38:41.545Z,6.23
2017-09-19T19:41:09.863Z,6.07
2017-09-19T19:43:38.928Z,6.87
2017-09-19T19:46:07.659Z,7.17
2017-09-19T19:48:37.660Z,7.70
2017-09-19T19:51:05.804Z,7.00
2017-09-19T19:53:36.523Z,7.30
2017-09-19T19:56:04.841Z,6.53
2017-09-19T19:58:33.306Z,7.40
2017-09-19T20:01:02.152Z,7.30
2017-09-19T20:03:32.015Z,6.67
2017-09-19T20:06:00.990Z,6.30
2017-09-19T20:08:33.103Z,6.47
2017-09-19T20:13:36.614Z,7.60
2017-09-19T20:16:06.314Z,7.50
2017-09-19T20:18:53.088Z,6.33
2017-09-19T20:21:21.976Z,6.57
2017-09-19T20:23:50.660Z,7.30
2017-09-19T20:28:52.235Z,6.60
2017-09-19T20:31:21.501Z,6.97
2017-09-19T20:33:49.729Z,6.23
2017-09-19T20:36:17.787Z,6.73
2017-09-19T20:38:46.197Z,6.47
2017-09-19T20:41:15.703Z,5.33
2017-09-19T20:43:45.432Z,5.83
2017-09-19T20:46:14.225Z,6.27
2017-09-19T20:51:15.676Z,6.57
2017-09-19T20:53:45.947Z,5.93
2017-09-19T20:56:14.531Z,6.60
2017-09-19T20:58:42.811Z,5.60
2017-09-19T21:01:12.804Z,5.80
2017-09-19T21:03:48.207Z,6.40
2017-09-19T21:06:24.815Z,6.03
2017-09-19T21:08:59.532Z,6.83
2017-09-19T21:11:32.835Z,7.30
2017-09-19T21:14:10.398Z,8.50
2017-09-19T21:16:45.536Z,7.20
2017-09-19T21:19:29.470Z,7.40
2017-09-19T21:24:30.622Z,7.57
2017-09-19T21:32:36.758Z,7.27
2017-09-19T21:35:06.080Z,7.60
2017-09-19T21:37:34.815Z,7.57
2017-09-19T21:40:03.712Z,6.40
2017-09-19T21:42:32.868Z,7.30
2017-09-19T21:45:00.753Z,7.23
2017-09-19T21:47:28.991Z,7.33
2017-09-19T21:49:57.149Z,6.40
2017-09-19T21:52:24.797Z,6.70
2017-09-19T21:54:52.790Z,6.07
2017-09-19T21:57:20.409Z,6.67
2017-09-19T21:59:48.350Z,6.17
2017-09-19T22:02:15.949Z,6.33
2017-09-19T22:04:43.584Z,6.50
2017-09-19T22:07:11.603Z,6.87
2017-09-19T22:09:39.203Z,5.87
2017-09-19T22:12:06.807Z,6.27
2017-09-19T22:14:34.770Z,6.37
2017-09-19T22:17:02.387Z,6.80
2017-09-19T22:19:30.394Z,5.90
2017-09-19T22:21:58.032Z,6.20
2017-09-19T22:24:26.398Z,5.40
2017-09-19T22:26:53.993Z,6.60
2017-09-19T22:29:21.776Z,6.17
2017-09-19T22:31:49.367Z,6.57
2017-09-19T22:34:16.944Z,5.73
2017-09-19T22:36:44.566Z,7.07
2017-09-19T22:39:12.948Z,6.37
2017-09-19T22:41:40.550Z,6.07
2017-09-19T22:44:08.188Z,6.00
2017-09-19T22:46:35.792Z,5.73
2017-09-19T22:49:03.395Z,6.17
2017-09-19T22:51:31.746Z,5.60
2017-09-19T22:53:59.314Z,6.07
2017-09-19T22:56:26.878Z,6.43
2017-09-19T22:58:57.614Z,5.80
2017-09-19T23:01:25.190Z,5.77
2017-09-19T23:03:52.798Z,5.33
2017-09-19T23:06:20.426Z,6.00
2017-09-19T23:08:51.512Z,6.10
2017-09-19T23:11:19.877Z,5.03
2017-09-19T23:13:47.474Z,6.17
2017-09-19T23:16:15.054Z,6.13
2017-09-19T23:18:42.622Z,5.43
2017-09-19T23:21:10.245Z,5.30
2017-09-19T23:23:38.414Z,5.40
2017-09-19T23:26:06.006Z,6.10
2017-09-19T23:28:35.159Z,5.17
2017-09-19T23:31:02.754Z,5.87
2017-09-19T23:33:30.387Z,5.87
2017-09-19T23:35:58.010Z,5.60
2017-09-19T23:38:25.651Z,5.33
2017-09-19T23:40:53.253Z,6.13
2017-09-19T23:43:20.874Z,5.53
2017-09-19T23:45:48.632Z,5.43
2017-09-19T23:48:16.636Z,5.07
2017-09-19T23:50:44.663Z,4.63
2017-09-19T23:53:12.998Z,5.27
2017-09-19T23:55:40.562Z,5.93
2017-09-19T23:58:08.160Z,5.10
